Terminal Aerodrome Forecast
Issued by NWS Charleston, WV

Current Version | Previous Version | Graphics & Text | Print | Product List | Glossary On
Versions: 1 2 3 4 5 6 7 8 9 10 11 12 13 14 15 16 17 18 19 20 21 22 23 24 25
800
FTUS41 KRLX 262139 AAB
TAFBKW
TAF AMD
KBKW 262139Z 2622/2718 31006KT P6SM FEW014 BKN045 OVC110
     FM262300 22009KT P6SM SCT035 BKN100
     FM270400 32005KT 5SM BR OVC003
     FM270600 32004KT 1 1/2SM BR BKN001
     FM271000 32004KT 3SM BR BKN010
     FM271300 31004KT 6SM BR SCT015
     FM271600 28006KT P6SM FEW250=

USA.gov is the U.S. government's official web portal to all federal, state and local government web resources and services.